Time;durP1;ratioP1;P1;durP2;ratioP2;P2;SDS_P1;SDS_P2;PMS_P1;PMS_P2;Temp;Humidity;BMP_temperature;BMP_pressure;BME280_temperature;BME280_humidity;BME280_pressure;Samples;Min_cycle;Max_cycle;Signal;HPM_P1;HPM_P2
2021/04/14 00:02:14;;;;;;;3.50;2.80;;;1.90;99.90;;;;;;5032888;28;20186;-68
2021/04/14 00:04:40;;;;;;;3.27;2.70;;;1.90;99.90;;;;;;5032669;28;20166;-68
2021/04/14 00:07:09;;;;;;;2.93;2.73;;;1.90;99.90;;;;;;5031352;28;20202;-68
2021/04/14 00:09:35;;;;;;;4.80;2.60;;;1.90;99.90;;;;;;5032133;28;20527;-68
2021/04/14 00:12:01;;;;;;;3.60;2.90;;;1.90;99.90;;;;;;5031965;28;20574;-68
2021/04/14 00:14:27;;;;;;;3.73;2.67;;;1.90;99.90;;;;;;5032171;28;20201;-68
2021/04/14 00:16:53;;;;;;;3.07;2.67;;;2.00;99.90;;;;;;5030944;28;20456;-68
2021/04/14 00:19:19;;;;;;;4.00;3.20;;;2.00;99.90;;;;;;5031763;28;20461;-68
2021/04/14 00:21:44;;;;;;;4.10;2.80;;;1.90;99.90;;;;;;5031966;28;20201;-68
2021/04/14 00:24:12;;;;;;;3.33;2.60;;;1.90;99.90;;;;;;5031025;28;20178;-68
2021/04/14 00:26:38;;;;;;;2.73;2.53;;;1.80;99.90;;;;;;5032015;28;20597;-68
2021/04/14 00:29:04;;;;;;;3.43;2.50;;;1.70;99.90;;;;;;5032141;28;20524;-68
2021/04/14 00:31:36;;;;;;;4.40;3.10;;;1.70;99.90;;;;;;5031933;28;20863;-68
2021/04/14 00:34:17;;;;;;;2.50;2.30;;;1.70;99.90;;;;;;5031548;28;20449;-68
2021/04/14 00:36:44;;;;;;;4.90;2.63;;;1.60;99.90;;;;;;5031775;28;20818;-68
2021/04/14 00:39:16;;;;;;;2.77;2.50;;;1.60;99.90;;;;;;5032514;28;20465;-67
2021/04/14 00:41:44;;;;;;;3.20;2.97;;;1.60;99.90;;;;;;5031575;28;20542;-69
2021/04/14 00:44:09;;;;;;;2.73;2.53;;;1.60;99.90;;;;;;5032093;28;20482;-68
2021/04/14 00:46:35;;;;;;;3.93;2.50;;;1.60;99.90;;;;;;5031967;28;20425;-67
2021/04/14 00:49:00;;;;;;;2.80;2.60;;;1.60;99.90;;;;;;5031676;28;20186;-68
2021/04/14 00:51:27;;;;;;;3.13;2.83;;;1.60;99.90;;;;;;5032206;28;20186;-68
2021/04/14 00:53:53;;;;;;;5.93;2.83;;;1.50;99.90;;;;;;5030566;28;20194;-68
2021/04/14 00:56:19;;;;;;;3.80;2.60;;;1.50;99.90;;;;;;5032346;28;20437;-68
2021/04/14 00:58:44;;;;;;;4.17;2.90;;;1.40;99.90;;;;;;5031957;28;20867;-68
2021/04/14 01:01:10;;;;;;;4.03;2.87;;;1.40;99.90;;;;;;5031172;28;20467;-68
2021/04/14 01:03:37;;;;;;;4.00;2.20;;;1.40;99.90;;;;;;5032020;28;20185;-68
2021/04/14 01:06:09;;;;;;;5.10;2.93;;;1.50;99.90;;;;;;5031402;28;20595;-68
2021/04/14 01:08:35;;;;;;;5.80;3.13;;;1.50;99.90;;;;;;5031863;28;20479;-68
2021/04/14 01:11:02;;;;;;;2.90;2.50;;;1.50;99.90;;;;;;5031207;28;20425;-68
2021/04/14 01:13:28;;;;;;;8.57;3.20;;;1.50;99.90;;;;;;5031772;28;20834;-67
2021/04/14 01:15:53;;;;;;;5.83;3.83;;;1.50;99.90;;;;;;5031012;28;20487;-68
2021/04/14 01:18:27;;;;;;;5.97;3.07;;;1.50;99.90;;;;;;5030626;28;20280;-68
2021/04/14 01:20:55;;;;;;;3.20;2.90;;;1.40;99.90;;;;;;5031149;28;20189;-67
2021/04/14 01:23:24;;;;;;;5.40;3.70;;;1.20;99.90;;;;;;5029953;28;20425;-66
2021/04/14 01:25:51;;;;;;;3.43;3.13;;;1.10;99.90;;;;;;5031033;28;20475;-68
2021/04/14 01:28:21;;;;;;;5.93;3.63;;;1.00;99.90;;;;;;5030902;28;20948;-68
2021/04/14 01:30:48;;;;;;;5.33;4.00;;;1.00;99.90;;;;;;5030779;28;20429;-68
2021/04/14 01:33:18;;;;;;;3.33;3.03;;;1.10;99.90;;;;;;5030885;28;20429;-68
2021/04/14 01:35:44;;;;;;;3.80;3.40;;;1.10;99.90;;;;;;5030868;28;20437;-67
2021/04/14 01:38:10;;;;;;;3.13;2.80;;;1.10;99.90;;;;;;5015249;28;20464;-68
2021/04/14 01:40:36;;;;;;;6.83;3.47;;;1.10;99.90;;;;;;5031126;28;20198;-67
2021/04/14 01:43:03;;;;;;;5.53;2.90;;;1.10;99.90;;;;;;5020890;28;20455;-67
2021/04/14 01:45:34;;;;;;;3.80;3.50;;;1.10;99.90;;;;;;5031681;28;20429;-67
2021/04/14 01:48:00;;;;;;;4.13;3.00;;;1.10;99.90;;;;;;5030361;28;20468;-68
2021/04/14 01:50:26;;;;;;;3.83;2.90;;;1.00;99.90;;;;;;5030688;28;20528;-67
2021/04/14 01:52:52;;;;;;;3.97;3.60;;;1.00;99.90;;;;;;5030949;28;20433;-67
2021/04/14 01:55:17;;;;;;;5.67;3.83;;;0.90;99.90;;;;;;5029618;28;20459;-68
2021/04/14 01:57:44;;;;;;;4.00;3.23;;;0.90;99.90;;;;;;5030226;28;20252;-68
2021/04/14 02:00:27;;;;;;;3.10;2.80;;;0.90;99.90;;;;;;5024132;28;20757;-67
2021/04/14 02:02:53;;;;;;;4.73;3.10;;;0.90;99.90;;;;;;5029375;28;20494;-68
2021/04/14 02:05:22;;;;;;;3.47;2.80;;;0.90;99.90;;;;;;5030909;28;20433;-68
2021/04/14 02:07:47;;;;;;;3.53;2.60;;;0.80;99.90;;;;;;5030171;28;20202;-68
2021/04/14 02:10:14;;;;;;;4.97;2.60;;;0.80;99.90;;;;;;5030562;28;20498;-68
2021/04/14 02:12:41;;;;;;;6.23;2.90;;;0.90;99.90;;;;;;5029094;28;20170;-69
2021/04/14 02:15:08;;;;;;;5.73;3.30;;;0.90;99.90;;;;;;5030458;28;20980;-68
2021/04/14 02:17:33;;;;;;;4.33;2.67;;;0.90;99.90;;;;;;5030360;28;20460;-68
2021/04/14 02:19:59;;;;;;;4.53;2.77;;;0.80;99.90;;;;;;5029888;28;20460;-68
2021/04/14 02:22:25;;;;;;;3.30;2.43;;;0.80;99.90;;;;;;5030902;28;20166;-68
2021/04/14 02:24:50;;;;;;;3.47;2.73;;;0.80;99.90;;;;;;5030417;28;20173;-68
2021/04/14 02:27:16;;;;;;;4.97;2.93;;;0.80;99.90;;;;;;5029842;28;20198;-69
2021/04/14 02:29:41;;;;;;;2.57;2.37;;;0.90;99.90;;;;;;5030011;28;20189;-68
2021/04/14 02:32:07;;;;;;;3.70;3.13;;;0.90;99.90;;;;;;5030172;28;20193;-67
2021/04/14 02:34:34;;;;;;;2.57;2.00;;;0.90;99.90;;;;;;5030029;28;20189;-67
2021/04/14 02:36:59;;;;;;;3.03;2.73;;;0.90;99.90;;;;;;5030211;28;20554;-68
2021/04/14 02:39:25;;;;;;;4.57;3.60;;;0.80;99.90;;;;;;5030197;28;20459;-66
2021/04/14 02:41:50;;;;;;;6.13;3.40;;;0.80;99.90;;;;;;5029894;28;20189;-68
2021/04/14 02:44:16;;;;;;;5.10;2.87;;;0.80;99.90;;;;;;5029932;28;20174;-69
2021/04/14 02:46:42;;;;;;;3.57;3.27;;;0.70;99.90;;;;;;5029829;28;20186;-68
2021/04/14 02:49:07;;;;;;;4.57;3.50;;;0.70;99.90;;;;;;5034023;28;20277;-67
2021/04/14 02:51:33;;;;;;;3.50;3.20;;;0.60;99.90;;;;;;5034624;28;20525;-68
2021/04/14 02:53:58;;;;;;;4.47;3.27;;;0.60;99.90;;;;;;5034049;28;20701;-67
2021/04/14 02:56:24;;;;;;;3.80;3.30;;;0.50;99.90;;;;;;5034096;28;20220;-69
2021/04/14 02:58:49;;;;;;;3.33;3.07;;;0.50;99.90;;;;;;5034366;28;20539;-66
2021/04/14 03:01:15;;;;;;;3.87;2.80;;;0.40;99.90;;;;;;5026799;28;20624;-67
2021/04/14 03:03:41;;;;;;;4.40;2.63;;;0.40;99.90;;;;;;5033476;28;20261;-67
2021/04/14 03:06:06;;;;;;;5.80;3.77;;;0.40;99.90;;;;;;5032340;28;20519;-68
2021/04/14 03:08:32;;;;;;;5.60;4.27;;;0.40;99.90;;;;;;5034276;28;20194;-68
2021/04/14 03:10:58;;;;;;;3.30;3.00;;;0.40;99.90;;;;;;5033018;28;20176;-68
2021/04/14 03:13:25;;;;;;;5.03;3.40;;;0.40;99.90;;;;;;5034240;28;20257;-68
2021/04/14 03:15:51;;;;;;;3.43;3.00;;;0.40;99.90;;;;;;5031858;28;20209;-69
2021/04/14 03:18:16;;;;;;;4.33;3.20;;;0.40;99.90;;;;;;5033906;28;20486;-68
2021/04/14 03:20:43;;;;;;;4.97;2.70;;;0.40;99.90;;;;;;5033171;28;20456;-67
2021/04/14 03:23:11;;;;;;;7.50;3.33;;;0.30;99.90;;;;;;5033515;28;20178;-68
2021/04/14 03:25:37;;;;;;;6.60;3.50;;;0.40;99.90;;;;;;5033308;28;20424;-68
2021/04/14 03:28:04;;;;;;;3.37;3.10;;;0.40;99.90;;;;;;5033210;28;20445;-68
2021/04/14 03:30:30;;;;;;;6.80;3.20;;;0.30;99.90;;;;;;5032037;28;20529;-67
2021/04/14 03:32:56;;;;;;;5.57;3.23;;;0.30;99.90;;;;;;5032839;28;20439;-67
2021/04/14 03:35:24;;;;;;;11.30;3.43;;;0.30;99.90;;;;;;5033450;28;20840;-67
2021/04/14 03:37:50;;;;;;;6.90;3.10;;;0.30;99.90;;;;;;5033059;28;20460;-68
2021/04/14 03:40:17;;;;;;;2.83;2.37;;;0.40;99.90;;;;;;5018150;28;20547;-68
2021/04/14 03:42:43;;;;;;;3.17;2.80;;;0.40;99.90;;;;;;5033044;28;20508;-67
2021/04/14 03:45:15;;;;;;;2.87;2.53;;;0.30;99.90;;;;;;5032843;28;20424;-67
2021/04/14 03:47:41;;;;;;;3.03;2.43;;;0.30;99.90;;;;;;5033156;28;20452;-67
2021/04/14 03:50:10;;;;;;;4.30;3.00;;;0.30;99.90;;;;;;5032559;28;20440;-67
2021/04/14 03:52:36;;;;;;;4.37;2.70;;;0.30;99.90;;;;;;5032231;28;20528;-68
2021/04/14 03:55:02;;;;;;;3.70;2.70;;;0.20;99.90;;;;;;5033249;28;20512;-67
2021/04/14 03:57:27;;;;;;;3.37;3.00;;;0.20;99.90;;;;;;5032624;28;20226;-67
2021/04/14 03:59:53;;;;;;;5.40;3.03;;;0.20;99.90;;;;;;5032429;28;20852;-68
2021/04/14 04:02:18;;;;;;;3.33;2.87;;;0.20;99.90;;;;;;5031644;28;20706;-67
2021/04/14 04:04:44;;;;;;;4.17;3.40;;;0.10;99.90;;;;;;5023526;28;20183;-67
2021/04/14 04:07:09;;;;;;;7.60;5.00;;;0.10;99.90;;;;;;5033058;28;20194;-67
2021/04/14 04:09:35;;;;;;;10.43;6.00;;;0.10;99.90;;;;;;5032545;28;20293;-68
2021/04/14 04:12:02;;;;;;;8.77;5.73;;;0.00;99.90;;;;;;5031070;28;20209;-68
2021/04/14 04:14:32;;;;;;;20.57;10.10;;;0.00;99.90;;;;;;5032642;28;20170;-67
2021/04/14 04:16:57;;;;;;;16.27;9.53;;;0.00;99.90;;;;;;5032225;28;20484;-66
2021/04/14 04:19:23;;;;;;;8.50;5.93;;;0.10;99.90;;;;;;5032250;28;20457;-67
2021/04/14 04:21:48;;;;;;;9.90;5.27;;;0.10;99.90;;;;;;5032085;28;20327;-67
2021/04/14 04:24:14;;;;;;;8.20;5.70;;;0.10;99.90;;;;;;5032402;28;20275;-68
2021/04/14 04:26:39;;;;;;;8.87;4.03;;;0.10;99.90;;;;;;5031733;28;20202;-67
2021/04/14 04:29:05;;;;;;;4.10;3.70;;;0.00;99.90;;;;;;5032197;28;20182;-67
2021/04/14 04:31:31;;;;;;;7.90;4.40;;;0.00;99.90;;;;;;5032064;28;20244;-67
2021/04/14 04:33:56;;;;;;;8.83;4.07;;;0.10;99.90;;;;;;5031984;28;20196;-67
2021/04/14 04:36:22;;;;;;;6.03;4.47;;;0.00;99.90;;;;;;5031985;28;20973;-68
2021/04/14 04:38:47;;;;;;;5.77;4.07;;;0.00;99.90;;;;;;5031912;28;20217;-68
2021/04/14 04:41:13;;;;;;;9.10;4.27;;;-0.10;99.90;;;;;;5031550;28;20174;-67
2021/04/14 04:43:40;;;;;;;4.77;3.57;;;0.00;99.90;;;;;;5031828;28;20181;-68
2021/04/14 04:46:06;;;;;;;9.27;4.20;;;0.00;99.90;;;;;;5031525;28;20166;-68
2021/04/14 04:48:31;;;;;;;6.30;5.17;;;-0.10;99.90;;;;;;5031443;28;20453;-67
2021/04/14 04:50:57;;;;;;;7.83;5.60;;;-0.10;99.90;;;;;;5031771;28;20183;-67
2021/04/14 04:53:24;;;;;;;9.37;4.67;;;0.00;99.90;;;;;;5031803;28;20197;-68
2021/04/14 04:55:51;;;;;;;7.10;4.43;;;0.00;99.90;;;;;;5031478;28;20444;-68
2021/04/14 04:58:18;;;;;;;5.60;3.90;;;0.10;99.90;;;;;;5031915;28;20452;-68
2021/04/14 05:00:46;;;;;;;5.53;4.30;;;0.20;99.90;;;;;;5031027;28;20806;-68
2021/04/14 05:03:13;;;;;;;4.10;3.70;;;0.30;99.90;;;;;;5031608;28;20789;-68
2021/04/14 05:05:41;;;;;;;5.63;4.47;;;0.40;99.90;;;;;;5031591;28;20425;-67
2021/04/14 05:08:07;;;;;;;5.50;3.97;;;0.50;99.90;;;;;;5031512;28;20452;-68
2021/04/14 05:10:33;;;;;;;5.07;4.57;;;0.60;99.90;;;;;;5030467;28;20428;-67
2021/04/14 05:12:59;;;;;;;6.53;4.47;;;0.70;99.90;;;;;;5024220;28;20804;-67
2021/04/14 05:15:31;;;;;;;10.90;4.37;;;0.80;99.90;;;;;;5021766;28;20430;-67
2021/04/14 05:17:57;;;;;;;6.83;4.37;;;0.80;99.90;;;;;;5021059;28;20691;-65
2021/04/14 05:20:23;;;;;;;7.83;4.90;;;0.90;99.90;;;;;;5023610;28;20471;-66
2021/04/14 05:22:48;;;;;;;8.37;5.90;;;1.10;99.90;;;;;;5031040;28;20532;-66
2021/04/14 05:25:20;;;;;;;8.77;5.83;;;1.20;99.90;;;;;;5029892;28;20812;-66
2021/04/14 05:27:46;;;;;;;6.57;5.37;;;1.40;99.90;;;;;;5029947;28;20194;-69
2021/04/14 05:30:13;;;;;;;8.67;4.27;;;1.50;99.90;;;;;;5029363;28;20480;-67
2021/04/14 05:32:40;;;;;;;6.37;4.10;;;1.50;99.90;;;;;;5023072;28;20444;-68
2021/04/14 05:35:06;;;;;;;6.20;4.40;;;1.50;99.90;;;;;;5022305;28;20437;-67
2021/04/14 05:37:32;;;;;;;8.53;4.80;;;1.60;99.90;;;;;;5021516;28;20452;-68
2021/04/14 05:39:58;;;;;;;7.70;5.73;;;1.70;99.90;;;;;;5025741;28;20479;-66
2021/04/14 05:42:23;;;;;;;6.60;4.87;;;1.90;99.90;;;;;;5027198;28;20257;-66
2021/04/14 05:44:50;;;;;;;6.23;4.00;;;2.00;99.90;;;;;;5023518;28;20213;-68
2021/04/14 05:47:16;;;;;;;6.50;4.40;;;2.10;99.90;;;;;;5030183;28;20635;-68
2021/04/14 05:49:41;;;;;;;6.00;5.03;;;2.30;99.90;;;;;;5030272;28;20512;-67
2021/04/14 05:52:07;;;;;;;13.60;5.30;;;2.50;99.90;;;;;;5030209;28;20201;-66
2021/04/14 05:54:32;;;;;;;5.70;4.53;;;2.50;99.90;;;;;;5029830;28;20713;-67
2021/04/14 05:56:58;;;;;;;7.07;5.17;;;2.50;99.90;;;;;;5030423;28;20653;-66
2021/04/14 05:59:23;;;;;;;6.00;5.40;;;2.60;99.90;;;;;;5030580;28;20612;-66
2021/04/14 06:01:49;;;;;;;8.73;6.10;;;2.70;99.90;;;;;;5030512;28;20265;-67
2021/04/14 06:04:16;;;;;;;12.97;5.73;;;2.90;99.90;;;;;;5030973;28;20179;-67
2021/04/14 06:06:42;;;;;;;9.63;5.90;;;3.00;99.90;;;;;;5021784;28;20281;-68
2021/04/14 06:09:09;;;;;;;7.23;5.73;;;3.20;99.90;;;;;;5029961;28;20516;-68
2021/04/14 06:11:35;;;;;;;5.80;5.30;;;3.40;99.90;;;;;;5030652;28;20243;-66
2021/04/14 06:14:01;;;;;;;6.60;5.90;;;3.50;99.90;;;;;;5030009;28;20452;-66
2021/04/14 06:16:26;;;;;;;7.00;5.40;;;3.60;99.90;;;;;;5029997;28;20432;-66
2021/04/14 06:18:52;;;;;;;6.10;5.47;;;3.70;99.90;;;;;;5030500;28;20278;-65
2021/04/14 06:21:18;;;;;;;8.30;5.13;;;3.90;99.90;;;;;;5017237;28;20712;-66
2021/04/14 06:23:45;;;;;;;7.73;5.97;;;4.20;99.90;;;;;;5027677;28;20170;-66
2021/04/14 06:26:17;;;;;;;6.10;5.20;;;4.40;99.90;;;;;;5028653;28;20432;-66
2021/04/14 06:28:43;;;;;;;11.40;9.90;;;4.60;99.90;;;;;;5025512;28;20449;-67
2021/04/14 06:31:10;;;;;;;11.80;6.47;;;4.80;99.90;;;;;;5005186;28;20471;-68
2021/04/14 06:33:38;;;;;;;7.10;5.87;;;5.10;99.90;;;;;;5024652;28;20252;-67
2021/04/14 06:36:07;;;;;;;6.10;5.50;;;5.20;99.90;;;;;;5029645;28;20443;-67
2021/04/14 06:38:37;;;;;;;4.50;4.10;;;5.50;99.90;;;;;;5029059;28;20547;-69
2021/04/14 06:41:51;;;;;;;7.97;5.30;;;5.60;99.90;;;;;;5033476;28;20431;-68
2021/04/14 06:44:23;;;;;;;7.17;4.90;;;5.90;99.90;;;;;;5021131;28;20485;-69
2021/04/14 06:46:51;;;;;;;5.93;5.20;;;6.10;99.90;;;;;;5018963;28;20472;-68
2021/04/14 06:49:40;;;;;;;6.10;4.90;;;6.20;99.90;;;;;;5029106;28;20980;-68
2021/04/14 06:52:48;;;;;;;3.93;3.63;;;6.40;99.90;;;;;;5029202;28;20988;-68
2021/04/14 06:55:20;;;;;;;5.80;4.63;;;6.50;99.90;;;;;;5023406;28;20439;-68
2021/04/14 06:57:55;;;;;;;5.63;4.60;;;6.50;99.90;;;;;;5020127;28;21012;-68
2021/04/14 07:00:35;;;;;;;3.90;3.50;;;6.50;99.90;;;;;;5024525;28;20471;-68
2021/04/14 07:03:12;;;;;;;6.10;4.20;;;6.30;99.90;;;;;;5022382;28;21004;-68
2021/04/14 07:05:47;;;;;;;4.70;4.23;;;6.40;99.90;;;;;;5021511;28;20486;-68
2021/04/14 07:08:27;;;;;;;6.10;4.40;;;6.50;99.90;;;;;;5022806;28;20448;-68
2021/04/14 07:10:57;;;;;;;4.30;3.90;;;6.60;99.90;;;;;;5022176;28;20432;-68
2021/04/14 07:13:23;;;;;;;11.27;7.57;;;6.50;99.90;;;;;;5021971;28;20436;-67
2021/04/14 07:15:55;;;;;;;6.67;5.47;;;6.60;99.90;;;;;;5019953;28;20432;-68
2021/04/14 07:18:36;;;;;;;6.43;5.83;;;6.60;99.90;;;;;;5025653;28;20472;-68
2021/04/14 07:21:06;;;;;;;14.57;6.40;;;6.80;99.90;;;;;;5021198;28;20433;-68
2021/04/14 07:23:56;;;;;;;6.60;5.93;;;6.90;99.90;;;;;;5027536;28;20424;-68
2021/04/14 07:26:39;;;;;;;6.57;5.97;;;7.10;99.90;;;;;;5025249;28;21124;-67
2021/04/14 07:29:30;;;;;;;7.43;6.77;;;7.00;99.90;;;;;;5022121;28;20520;-67
2021/04/14 07:31:55;;;;;;;7.80;6.20;;;7.10;99.90;;;;;;5026111;28;20447;-68
2021/04/14 07:34:51;;;;;;;9.43;6.80;;;7.20;99.90;;;;;;5021704;28;21755;-67
2021/04/14 07:37:36;;;;;;;8.57;7.67;;;7.40;99.90;;;;;;5025091;28;20240;-67
2021/04/14 07:40:28;;;;;;;13.13;7.07;;;7.50;99.90;;;;;;5025967;28;20535;-68
2021/04/14 07:43:06;;;;;;;10.63;7.70;;;7.60;99.90;;;;;;5024749;28;20494;-68
2021/04/14 07:45:35;;;;;;;10.33;7.30;;;7.80;99.90;;;;;;5021832;28;20965;-67
2021/04/14 07:48:17;;;;;;;9.93;6.23;;;8.00;99.90;;;;;;5029860;28;20457;-67
2021/04/14 07:50:52;;;;;;;11.80;6.40;;;8.30;99.90;;;;;;5025377;28;20450;-68
2021/04/14 07:53:28;;;;;;;9.20;6.33;;;8.30;99.90;;;;;;5029417;28;20447;-70
2021/04/14 07:56:09;;;;;;;12.50;9.87;;;8.40;99.90;;;;;;5031100;28;20915;-67
2021/04/14 07:58:38;;;;;;;8.73;7.43;;;8.40;99.90;;;;;;5021730;28;20599;-67
2021/04/14 08:01:30;;;;;;;7.47;6.37;;;8.20;99.90;;;;;;5025124;28;20461;-68
2021/04/14 08:04:19;;;;;;;6.77;5.53;;;8.10;99.90;;;;;;5022305;28;20810;-68
2021/04/14 08:06:45;;;;;;;10.13;6.17;;;8.20;99.90;;;;;;5026977;28;21024;-68
2021/04/14 08:09:15;;;;;;;5.97;4.80;;;8.50;99.90;;;;;;5023483;28;20428;-68
2021/04/14 08:11:41;;;;;;;4.20;3.80;;;8.70;99.90;;;;;;5025978;28;20182;-67
2021/04/14 08:14:24;;;;;;;5.27;4.23;;;8.80;99.90;;;;;;5023469;28;20436;-67
2021/04/14 08:16:53;;;;;;;7.80;5.27;;;9.00;99.90;;;;;;5026139;28;20981;-67
2021/04/14 08:19:23;;;;;;;8.40;5.53;;;9.30;99.90;;;;;;5020134;28;20907;-68
2021/04/14 08:22:19;;;;;;;5.47;4.90;;;9.50;99.90;;;;;;5022137;28;20510;-66
2021/04/14 08:24:54;;;;;;;6.47;4.40;;;9.70;99.90;;;;;;5023489;28;20442;-67
2021/04/14 08:27:33;;;;;;;7.50;5.20;;;9.70;99.90;;;;;;5024212;28;20517;-68
2021/04/14 08:30:20;;;;;;;7.80;5.37;;;9.90;99.90;;;;;;5020746;28;20435;-65
2021/04/14 08:32:56;;;;;;;8.70;5.83;;;10.10;99.60;;;;;;5024315;28;20425;-67
2021/04/14 08:35:37;;;;;;;6.57;5.70;;;10.20;99.40;;;;;;5017628;28;20463;-65
2021/04/14 08:38:11;;;;;;;7.70;5.47;;;10.40;98.70;;;;;;5019026;28;20456;-67
2021/04/14 08:40:50;;;;;;;5.90;4.67;;;10.70;98.80;;;;;;5021912;28;20458;-67
2021/04/14 08:43:38;;;;;;;7.13;4.50;;;11.00;96.70;;;;;;5025351;28;20444;-65
2021/04/14 08:46:14;;;;;;;5.93;3.77;;;10.80;95.90;;;;;;5023416;28;20465;-66
2021/04/14 08:48:44;;;;;;;8.30;4.17;;;10.50;94.80;;;;;;5025560;28;20590;-67
2021/04/14 08:51:13;;;;;;;5.00;4.60;;;10.50;94.70;;;;;;5025351;28;20435;-66
2021/04/14 08:53:42;;;;;;;6.33;5.27;;;10.60;95.10;;;;;;5025199;28;20468;-68
2021/04/14 08:56:08;;;;;;;5.13;4.60;;;10.80;95.10;;;;;;5033327;28;20520;-67
2021/04/14 08:58:35;;;;;;;6.93;4.33;;;11.00;93.90;;;;;;5030903;28;20490;-68
2021/04/14 09:01:01;;;;;;;10.63;5.83;;;11.10;93.80;;;;;;5031391;28;20447;-68
2021/04/14 09:03:32;;;;;;;10.00;4.40;;;11.50;93.50;;;;;;5031126;28;20433;-68
2021/04/14 09:05:58;;;;;;;6.00;4.60;;;11.90;92.20;;;;;;5031096;28;20445;-67
2021/04/14 09:08:28;;;;;;;4.57;4.17;;;12.30;91.60;;;;;;5031379;28;20471;-68
2021/04/14 09:10:59;;;;;;;4.73;4.33;;;12.70;91.00;;;;;;5030390;28;20193;-68
2021/04/14 09:13:32;;;;;;;6.50;5.33;;;13.10;87.50;;;;;;5030066;28;20429;-67
2021/04/14 09:16:02;;;;;;;6.80;4.80;;;13.40;85.40;;;;;;5030570;28;20502;-67
2021/04/14 09:18:37;;;;;;;5.10;4.63;;;13.80;84.70;;;;;;5031109;28;20870;-69
2021/04/14 09:21:18;;;;;;;6.20;4.50;;;14.30;82.00;;;;;;5030992;28;20424;-68
2021/04/14 09:23:58;;;;;;;6.77;4.93;;;14.80;79.90;;;;;;5030022;28;20425;-68
2021/04/14 09:26:39;;;;;;;5.10;4.33;;;15.30;77.80;;;;;;5030653;28;21109;-69
2021/04/14 09:29:22;;;;;;;4.70;4.23;;;15.80;76.20;;;;;;5030372;28;20980;-68
2021/04/14 09:31:51;;;;;;;4.27;3.97;;;16.10;71.60;;;;;;5027413;28;20520;-66
2021/04/14 09:34:22;;;;;;;4.23;3.80;;;16.20;68.10;;;;;;5022549;28;21069;-66
2021/04/14 09:37:06;;;;;;;5.10;4.13;;;16.90;66.70;;;;;;5030997;28;20444;-69
2021/04/14 09:39:40;;;;;;;4.37;4.07;;;17.00;65.50;;;;;;5030391;28;20544;-69
2021/04/14 09:42:39;;;;;;;10.37;4.73;;;16.80;63.80;;;;;;5028686;28;20436;-69
2021/04/14 09:45:25;;;;;;;5.33;4.27;;;17.60;61.30;;;;;;4988644;28;20445;-68
2021/04/14 09:47:51;;;;;;;7.07;6.30;;;18.00;57.80;;;;;;5028588;28;20445;-68
2021/04/14 09:50:39;;;;;;;5.43;3.70;;;18.30;53.80;;;;;;5029723;28;20506;-69
2021/04/14 09:53:19;;;;;;;4.30;3.90;;;18.10;51.50;;;;;;5029628;28;20194;-69
2021/04/14 09:56:20;;;;;;;4.80;4.40;;;17.90;51.50;;;;;;5030676;28;20457;-69
2021/04/14 09:59:01;;;;;;;6.07;4.10;;;18.70;49.50;;;;;;5024182;28;20464;-68
2021/04/14 10:01:34;;;;;;;5.03;3.50;;;17.00;49.90;;;;;;5028789;28;20432;-68
2021/04/14 10:04:02;;;;;;;5.20;4.10;;;15.60;51.40;;;;;;5030125;28;20439;-67
2021/04/14 10:06:28;;;;;;;6.10;3.43;;;14.80;52.70;;;;;;5029431;28;20814;-68
2021/04/14 10:09:08;;;;;;;3.50;3.20;;;15.20;52.40;;;;;;5029878;28;20416;-68
2021/04/14 10:11:39;;;;;;;6.30;4.00;;;16.10;51.20;;;;;;5030041;28;21024;-69
2021/04/14 10:14:25;;;;;;;4.67;3.90;;;17.10;51.00;;;;;;5029920;28;20429;-68
2021/04/14 10:16:52;;;;;;;4.37;3.60;;;18.70;47.70;;;;;;5029507;28;20468;-68
2021/04/14 10:19:27;;;;;;;4.00;3.37;;;20.60;46.20;;;;;;5029267;28;20839;-68
2021/04/14 10:21:53;;;;;;;5.60;3.57;;;21.20;39.70;;;;;;5029854;28;20425;-68
2021/04/14 10:24:19;;;;;;;4.10;3.73;;;20.50;38.50;;;;;;5022299;28;20433;-69
2021/04/14 10:26:51;;;;;;;4.37;3.97;;;18.00;41.00;;;;;;5029824;28;20441;-69
2021/04/14 10:29:19;;;;;;;4.70;3.40;;;16.20;46.10;;;;;;5029090;28;20549;-68
2021/04/14 10:31:45;;;;;;;3.00;2.40;;;14.90;47.80;;;;;;5029837;28;20850;-68
2021/04/14 10:34:27;;;;;;;3.80;2.87;;;14.20;46.70;;;;;;5028665;28;20432;-68
2021/04/14 10:36:53;;;;;;;3.20;2.90;;;14.20;46.70;;;;;;5025684;28;20186;-67
2021/04/14 10:39:31;;;;;;;5.20;3.60;;;14.20;47.60;;;;;;5020618;28;20507;-68
2021/04/14 10:41:57;;;;;;;4.00;3.40;;;15.90;46.70;;;;;;5028671;28;20799;-68
2021/04/14 10:44:29;;;;;;;7.40;4.03;;;18.20;43.90;;;;;;5029721;28;20425;-68
2021/04/14 10:47:10;;;;;;;4.43;3.87;;;20.90;38.70;;;;;;5029708;28;20789;-68
2021/04/14 10:49:36;;;;;;;6.10;4.37;;;23.20;35.60;;;;;;5029101;28;20436;-67
2021/04/14 10:52:17;;;;;;;4.23;3.83;;;23.60;35.70;;;;;;5029235;28;20433;-67
2021/04/14 10:54:47;;;;;;;6.80;4.43;;;21.70;36.80;;;;;;5029120;28;20429;-67
2021/04/14 10:57:19;;;;;;;5.67;3.80;;;19.80;39.50;;;;;;5029174;28;20480;-67
2021/04/14 10:59:47;;;;;;;6.70;4.80;;;16.20;44.30;;;;;;5029053;28;20507;-67
2021/04/14 11:02:22;;;;;;;6.20;4.50;;;14.20;47.80;;;;;;5027846;28;20431;-67
2021/04/14 11:04:50;;;;;;;4.63;4.23;;;12.70;50.20;;;;;;5028917;28;21010;-66
2021/04/14 11:07:22;;;;;;;5.17;4.67;;;11.50;52.70;;;;;;5029758;28;20452;-65
2021/04/14 11:09:50;;;;;;;4.30;4.00;;;10.70;55.70;;;;;;5033384;28;20440;-67
2021/04/14 11:12:19;;;;;;;6.17;4.97;;;10.00;58.30;;;;;;5034115;28;20428;-66
2021/04/14 11:14:48;;;;;;;6.00;4.27;;;9.90;60.40;;;;;;5033799;28;20523;-66
2021/04/14 11:17:25;;;;;;;4.40;4.00;;;10.20;60.60;;;;;;5033323;28;20469;-66
2021/04/14 11:19:56;;;;;;;5.00;4.37;;;10.30;60.40;;;;;;5028759;28;20966;-66
2021/04/14 11:22:22;;;;;;;3.80;3.30;;;12.10;56.80;;;;;;5032128;28;20978;-65
2021/04/14 11:24:51;;;;;;;7.20;6.50;;;14.70;51.30;;;;;;5033600;28;20436;-67
2021/04/14 11:27:28;;;;;;;4.27;4.00;;;15.20;47.90;;;;;;5032880;28;20449;-66
2021/04/14 11:30:15;;;;;;;4.53;4.13;;;14.20;47.30;;;;;;5030550;28;20458;-65
2021/04/14 11:32:51;;;;;;;4.60;4.30;;;13.00;49.90;;;;;;5032940;28;20501;-66
2021/04/14 11:35:28;;;;;;;5.23;4.83;;;12.10;51.70;;;;;;5028708;28;20433;-67
2021/04/14 11:37:53;;;;;;;4.90;4.50;;;11.50;52.50;;;;;;5032428;28;20452;-67
2021/04/14 11:40:19;;;;;;;3.80;3.50;;;11.40;53.10;;;;;;5032507;28;20900;-67
2021/04/14 11:42:50;;;;;;;3.90;3.60;;;11.50;53.00;;;;;;5030361;28;20183;-67
2021/04/14 11:45:32;;;;;;;5.10;4.50;;;11.60;51.10;;;;;;5030177;28;20556;-66
2021/04/14 11:48:12;;;;;;;4.37;3.57;;;11.40;50.30;;;;;;5032329;28;20487;-66
2021/04/14 11:50:40;;;;;;;4.33;3.83;;;11.40;50.70;;;;;;5032607;28;20433;-66
2021/04/14 11:53:23;;;;;;;4.43;4.03;;;11.50;49.80;;;;;;5032661;28;20558;-66
2021/04/14 11:55:49;;;;;;;4.23;3.93;;;11.60;49.20;;;;;;5032958;28;20983;-66
2021/04/14 11:58:45;;;;;;;3.87;3.57;;;12.10;49.60;;;;;;5032375;28;20531;-66
2021/04/14 12:01:28;;;;;;;4.20;3.80;;;12.50;48.40;;;;;;5031969;28;20961;-67
2021/04/14 12:03:54;;;;;;;3.73;3.50;;;13.00;48.00;;;;;;5032930;28;20945;-67
2021/04/14 12:06:20;;;;;;;4.33;3.93;;;13.60;47.40;;;;;;5031889;28;20487;-67
2021/04/14 12:08:47;;;;;;;4.40;4.00;;;14.20;47.40;;;;;;5032433;28;20178;-67
2021/04/14 12:11:24;;;;;;;6.27;5.67;;;15.10;46.60;;;;;;5032254;28;20778;-67
2021/04/14 12:13:51;;;;;;;5.13;4.37;;;15.70;46.80;;;;;;5032199;28;20470;-66
2021/04/14 12:16:17;;;;;;;6.50;5.00;;;15.80;46.80;;;;;;5032206;28;20460;-67
2021/04/14 12:18:42;;;;;;;5.03;4.53;;;15.90;47.00;;;;;;5032243;28;20464;-66
2021/04/14 12:21:09;;;;;;;4.40;4.00;;;15.50;47.40;;;;;;5031702;28;20944;-66
2021/04/14 12:23:35;;;;;;;4.53;3.87;;;15.30;48.20;;;;;;5031065;28;20198;-66
2021/04/14 12:26:01;;;;;;;4.20;3.63;;;15.50;48.00;;;;;;5031295;28;20981;-67
2021/04/14 12:28:27;;;;;;;4.90;4.17;;;14.70;47.70;;;;;;5022959;28;20480;-66
2021/04/14 12:30:52;;;;;;;4.80;4.30;;;14.00;48.10;;;;;;5029785;28;20265;-66
2021/04/14 12:33:18;;;;;;;4.60;4.20;;;13.80;49.10;;;;;;5031525;28;20186;-66
2021/04/14 12:35:44;;;;;;;4.77;4.47;;;14.10;49.10;;;;;;5031996;28;20255;-66
2021/04/14 12:38:09;;;;;;;4.90;4.37;;;14.30;50.30;;;;;;5031795;28;20198;-66
2021/04/14 12:40:35;;;;;;;3.93;3.63;;;14.50;50.80;;;;;;5031169;28;20301;-67
2021/04/14 12:43:01;;;;;;;5.27;4.40;;;15.60;51.00;;;;;;5032211;28;20178;-67
2021/04/14 12:45:47;;;;;;;4.70;3.97;;;16.70;50.00;;;;;;5031526;28;20228;-67
2021/04/14 12:48:18;;;;;;;3.80;3.50;;;16.10;50.50;;;;;;5031218;28;20539;-68
2021/04/14 12:50:57;;;;;;;3.60;3.40;;;15.70;51.70;;;;;;5031011;28;20532;-67
2021/04/14 12:53:23;;;;;;;3.37;3.10;;;14.90;52.80;;;;;;5023623;28;20915;-67
2021/04/14 12:55:49;;;;;;;4.63;4.23;;;14.80;53.70;;;;;;5031649;28;20478;-68
2021/04/14 12:58:26;;;;;;;4.60;4.30;;;14.20;54.20;;;;;;5030977;28;20452;-67
2021/04/14 13:00:51;;;;;;;3.90;3.60;;;13.80;55.10;;;;;;5031840;28;20953;-69
2021/04/14 13:03:34;;;;;;;4.40;4.00;;;13.60;55.90;;;;;;5039910;28;20532;-67
2021/04/14 13:06:04;;;;;;;5.00;4.00;;;13.50;56.00;;;;;;5031116;28;20184;-67
2021/04/14 13:08:36;;;;;;;4.27;3.90;;;13.50;57.00;;;;;;5028671;28;20445;-67
2021/04/14 13:11:09;;;;;;;4.40;4.10;;;13.90;55.40;;;;;;5020534;28;20795;-66